createdAt,value
2023-05-14T00:00:36.649Z,19.20
2023-05-14T00:03:27.429Z,20.30
2023-05-14T00:05:55.729Z,19.30
2023-05-14T00:08:23.837Z,17.50
2023-05-14T00:10:52.470Z,20.10
2023-05-14T00:13:20.616Z,17.40
2023-05-14T00:15:48.878Z,17.40
2023-05-14T00:18:17.005Z,17.80
2023-05-14T00:20:45.506Z,15.70
2023-05-14T00:23:13.680Z,17.90
2023-05-14T00:25:41.947Z,16.50
2023-05-14T00:28:10.093Z,17.40
2023-05-14T00:30:38.339Z,17.20
2023-05-14T00:33:07.152Z,16.10
2023-05-14T00:35:36.018Z,16.60
2023-05-14T00:38:04.756Z,16.70
2023-05-14T00:40:33.151Z,16.90
2023-05-14T00:43:01.701Z,15.70
2023-05-14T00:45:29.911Z,15.00
2023-05-14T00:47:58.209Z,14.10
2023-05-14T00:50:26.937Z,17.00
2023-05-14T00:52:55.288Z,16.90
2023-05-14T00:55:23.815Z,16.00
2023-05-14T00:57:54.766Z,16.50
2023-05-14T01:00:23.273Z,21.10
2023-05-14T01:02:51.910Z,14.90
2023-05-14T01:05:20.306Z,16.50
2023-05-14T01:08:23.261Z,15.80
2023-05-14T01:10:57.895Z,21.10
2023-05-14T01:13:41.142Z,20.50
2023-05-14T01:16:13.825Z,17.80
2023-05-14T01:18:44.353Z,24.00
2023-05-14T01:21:36.444Z,27.20
2023-05-14T01:24:05.033Z,24.60
2023-05-14T01:26:33.872Z,22.80
2023-05-14T01:29:23.272Z,21.70
2023-05-14T01:31:54.332Z,24.10
2023-05-14T01:34:24.694Z,26.80
2023-05-14T01:36:53.925Z,25.50
2023-05-14T01:39:24.334Z,22.80
2023-05-14T01:41:54.405Z,23.60
2023-05-14T01:44:22.686Z,20.40
2023-05-14T01:46:50.903Z,22.10
2023-05-14T01:49:19.812Z,22.20
2023-05-14T01:51:47.972Z,18.30
2023-05-14T01:54:16.368Z,22.70
2023-05-14T01:56:44.524Z,27.90
2023-05-14T01:59:12.612Z,21.90
2023-05-14T02:01:40.868Z,20.80
2023-05-14T02:04:09.152Z,22.30
2023-05-14T02:06:37.346Z,25.20
2023-05-14T02:09:05.799Z,19.10
2023-05-14T02:11:33.945Z,21.80
2023-05-14T02:14:02.070Z,18.90
2023-05-14T02:16:30.238Z,22.20
2023-05-14T02:18:58.396Z,18.80
2023-05-14T02:21:26.587Z,16.90
2023-05-14T02:23:54.723Z,18.00
2023-05-14T02:26:22.947Z,16.70
2023-05-14T02:28:51.858Z,16.10
2023-05-14T02:31:20.451Z,13.40
2023-05-14T02:33:48.606Z,16.20
2023-05-14T02:36:16.755Z,17.10
2023-05-14T02:38:44.816Z,16.50
2023-05-14T02:41:12.938Z,12.80
2023-05-14T02:43:41.387Z,13.50
2023-05-14T02:46:09.546Z,16.30
2023-05-14T02:48:37.694Z,11.90
2023-05-14T02:51:05.847Z,15.00
2023-05-14T02:53:33.951Z,13.90
2023-05-14T02:56:02.100Z,13.70
2023-05-14T02:58:30.476Z,14.80
2023-05-14T03:00:58.709Z,13.70
2023-05-14T03:03:29.430Z,15.50
2023-05-14T03:05:58.168Z,14.20
2023-05-14T03:08:26.330Z,18.50
2023-05-14T03:10:54.505Z,15.00
2023-05-14T03:13:22.586Z,14.80
2023-05-14T03:15:54.974Z,15.30
2023-05-14T03:18:23.734Z,18.50
2023-05-14T03:20:52.034Z,12.50
2023-05-14T03:23:20.202Z,16.80
2023-05-14T03:25:48.415Z,15.70
2023-05-14T03:28:16.520Z,14.20
2023-05-14T03:30:44.804Z,15.20
2023-05-14T03:33:13.046Z,14.20
2023-05-14T03:35:41.153Z,13.40
2023-05-14T03:38:09.322Z,13.90
2023-05-14T03:40:37.466Z,20.40
2023-05-14T03:43:05.559Z,13.60
2023-05-14T03:45:34.078Z,14.40
2023-05-14T03:48:02.254Z,15.10
2023-05-14T03:50:31.366Z,14.10
2023-05-14T03:52:59.478Z,14.60
2023-05-14T03:55:27.717Z,15.80
2023-05-14T03:57:55.856Z,13.60
2023-05-14T04:00:24.536Z,13.50
2023-05-14T04:02:54.315Z,13.70
2023-05-14T04:05:26.884Z,14.60
2023-05-14T04:07:55.639Z,13.60
2023-05-14T04:10:23.888Z,17.40
2023-05-14T04:12:52.238Z,17.70
2023-05-14T04:15:20.607Z,14.20
2023-05-14T04:17:48.830Z,16.20
2023-05-14T04:20:17.020Z,17.60
2023-05-14T04:22:45.295Z,16.80
2023-05-14T04:25:13.456Z,16.70
2023-05-14T04:27:41.725Z,13.50
2023-05-14T04:30:10.342Z,17.90
2023-05-14T04:32:39.192Z,16.50
2023-05-14T04:35:09.129Z,17.60
2023-05-14T04:37:37.322Z,19.90
2023-05-14T04:40:07.054Z,15.80
2023-05-14T04:42:35.145Z,15.60
2023-05-14T04:45:05.352Z,13.80
2023-05-14T04:47:33.579Z,15.10
2023-05-14T04:50:02.179Z,15.40
2023-05-14T04:52:30.360Z,14.10
2023-05-14T04:54:58.508Z,19.40
2023-05-14T04:57:26.845Z,17.50
2023-05-14T04:59:55.087Z,14.30
2023-05-14T05:02:23.873Z,17.40
2023-05-14T05:04:52.070Z,15.80
2023-05-14T05:07:20.280Z,15.30
2023-05-14T05:09:48.353Z,14.90
2023-05-14T05:12:16.493Z,16.90
2023-05-14T05:14:44.686Z,15.10
2023-05-14T05:17:12.800Z,19.00
2023-05-14T05:19:44.286Z,17.60
2023-05-14T05:22:12.782Z,18.50
2023-05-14T05:24:41.076Z,14.70
2023-05-14T05:27:09.179Z,18.60
2023-05-14T05:29:37.604Z,13.70
2023-05-14T05:32:06.401Z,14.90
2023-05-14T05:34:35.968Z,13.00
2023-05-14T05:37:06.079Z,14.60
2023-05-14T05:39:35.251Z,11.80
2023-05-14T05:42:06.137Z,14.90
2023-05-14T05:44:34.636Z,14.20
2023-05-14T05:47:02.944Z,12.70
2023-05-14T05:49:31.122Z,11.90
2023-05-14T05:51:59.242Z,12.80
2023-05-14T05:54:27.398Z,10.80
2023-05-14T05:56:55.708Z,12.30
2023-05-14T05:59:24.828Z,10.40
2023-05-14T06:01:53.370Z,10.90
2023-05-14T06:04:21.659Z,11.00
2023-05-14T06:06:49.760Z,7.90
2023-05-14T06:09:17.968Z,11.70
2023-05-14T06:11:46.175Z,9.30
2023-05-14T06:14:14.366Z,10.70
2023-05-14T06:16:42.475Z,12.20
2023-05-14T06:19:11.292Z,10.60
2023-05-14T06:21:39.612Z,14.30
2023-05-14T06:24:07.940Z,10.50
2023-05-14T06:26:36.068Z,13.10
2023-05-14T06:29:04.163Z,17.30
2023-05-14T06:31:32.328Z,12.20
2023-05-14T06:34:00.457Z,12.70
2023-05-14T06:36:28.625Z,9.60
2023-05-14T06:38:56.951Z,8.60
2023-05-14T06:41:25.052Z,11.80
2023-05-14T06:43:53.197Z,14.30
2023-05-14T06:46:21.670Z,11.30
2023-05-14T06:48:49.887Z,15.60
2023-05-14T06:51:18.051Z,9.70
2023-05-14T06:53:47.000Z,12.30
2023-05-14T06:56:15.137Z,10.10
2023-05-14T06:58:43.316Z,9.00
2023-05-14T07:01:11.495Z,11.90
2023-05-14T07:03:39.699Z,8.80
2023-05-14T07:06:07.930Z,7.70
2023-05-14T07:08:36.247Z,9.00
2023-05-14T07:11:04.572Z,10.30
2023-05-14T07:13:32.690Z,11.80
2023-05-14T07:16:00.795Z,10.70
2023-05-14T07:18:29.017Z,11.00
2023-05-14T07:20:57.383Z,12.00
2023-05-14T07:23:25.535Z,7.20
2023-05-14T07:25:53.751Z,7.90
2023-05-14T07:28:21.917Z,7.30
2023-05-14T07:30:50.078Z,11.70
2023-05-14T07:33:18.376Z,14.10
2023-05-14T07:35:46.619Z,5.80
2023-05-14T07:38:15.438Z,11.00
2023-05-14T07:40:43.737Z,8.80
2023-05-14T07:43:11.940Z,5.90
2023-05-14T07:45:40.284Z,6.30
2023-05-14T07:48:08.776Z,9.50
2023-05-14T07:50:37.874Z,6.70
2023-05-14T07:53:06.209Z,10.50
2023-05-14T07:55:34.291Z,6.30
2023-05-14T07:58:02.491Z,6.50
2023-05-14T08:00:30.855Z,8.00
2023-05-14T08:02:59.421Z,7.80
2023-05-14T08:05:27.788Z,7.00
2023-05-14T08:07:56.021Z,8.00
2023-05-14T08:10:24.340Z,7.30
2023-05-14T08:12:52.767Z,8.80
2023-05-14T08:15:21.162Z,8.60
2023-05-14T08:17:49.376Z,11.90
2023-05-14T08:20:17.765Z,10.40
2023-05-14T08:22:45.917Z,8.10
2023-05-14T08:25:14.068Z,6.90
2023-05-14T08:27:42.265Z,7.20
2023-05-14T08:30:10.843Z,6.90
2023-05-14T08:32:39.548Z,7.50
2023-05-14T08:35:08.421Z,7.70
2023-05-14T08:37:36.548Z,9.90
2023-05-14T08:40:04.996Z,8.30
2023-05-14T08:42:33.358Z,8.40
2023-05-14T08:45:03.321Z,9.20
2023-05-14T08:47:32.012Z,11.40
2023-05-14T08:50:08.428Z,7.00
2023-05-14T08:52:36.523Z,6.20
2023-05-14T08:55:06.669Z,6.20
2023-05-14T08:57:35.525Z,10.60
2023-05-14T09:00:08.823Z,7.00
2023-05-14T09:02:37.538Z,9.80
2023-05-14T09:05:07.571Z,7.80
2023-05-14T09:07:36.268Z,6.20
2023-05-14T09:10:04.930Z,5.70
2023-05-14T09:12:33.200Z,6.70
2023-05-14T09:15:01.334Z,6.50
2023-05-14T09:17:29.601Z,8.00
2023-05-14T09:19:58.557Z,5.00
2023-05-14T09:22:31.924Z,7.50
2023-05-14T09:27:36.535Z,6.60
2023-05-14T09:30:12.625Z,10.80
2023-05-14T09:32:50.640Z,5.60
2023-05-14T09:35:23.981Z,7.90
2023-05-14T09:40:24.581Z,7.10
2023-05-14T09:42:53.504Z,6.30
2023-05-14T09:45:21.985Z,9.80
2023-05-14T09:47:50.353Z,6.90
2023-05-14T09:50:18.657Z,8.70
2023-05-14T09:52:46.809Z,8.10
2023-05-14T09:55:16.187Z,4.00
2023-05-14T09:57:45.180Z,6.10
2023-05-14T10:00:13.918Z,5.70
2023-05-14T10:02:45.703Z,5.30
2023-05-14T10:05:16.063Z,6.10
2023-05-14T10:07:51.823Z,6.50
2023-05-14T10:10:21.464Z,4.60
2023-05-14T10:13:04.761Z,9.00
2023-05-14T10:15:59.512Z,4.50
2023-05-14T10:18:31.793Z,8.10
2023-05-14T10:21:08.147Z,7.80
2023-05-14T10:23:38.170Z,6.10
2023-05-14T10:26:07.072Z,5.20
2023-05-14T10:28:36.987Z,7.70
2023-05-14T10:31:05.212Z,8.20
2023-05-14T10:33:47.348Z,6.00
2023-05-14T10:36:15.749Z,4.00
2023-05-14T10:38:43.967Z,4.30
2023-05-14T10:41:18.061Z,6.50
2023-05-14T10:43:46.294Z,6.10
2023-05-14T10:46:15.158Z,5.30
2023-05-14T10:48:44.538Z,5.60
2023-05-14T10:51:13.068Z,6.20
2023-05-14T10:53:43.300Z,5.70
2023-05-14T10:56:14.776Z,5.30
2023-05-14T10:58:44.939Z,7.30
2023-05-14T11:01:14.036Z,3.40
2023-05-14T11:03:46.970Z,4.90
2023-05-14T11:06:16.404Z,5.50
2023-05-14T11:08:46.618Z,5.60
2023-05-14T11:11:15.121Z,8.10
2023-05-14T11:13:44.861Z,7.70
2023-05-14T11:16:23.436Z,5.30
2023-05-14T11:19:03.522Z,5.40
2023-05-14T11:21:33.051Z,5.70
2023-05-14T11:24:01.764Z,5.10
2023-05-14T11:26:31.814Z,5.60
2023-05-14T11:29:00.243Z,3.40
2023-05-14T11:31:28.517Z,5.90
2023-05-14T11:33:57.084Z,4.50
2023-05-14T11:36:25.299Z,5.10
2023-05-14T11:38:53.545Z,9.40
2023-05-14T11:41:23.163Z,5.70
2023-05-14T11:43:51.721Z,5.10
2023-05-14T11:46:20.103Z,4.40
2023-05-14T11:48:48.573Z,4.70
2023-05-14T11:51:17.024Z,5.00
2023-05-14T11:53:46.334Z,6.00
2023-05-14T11:56:14.501Z,5.60
2023-05-14T11:58:48.690Z,3.70
2023-05-14T12:01:17.322Z,5.00
2023-05-14T12:03:45.999Z,3.70
2023-05-14T12:06:14.235Z,7.90
2023-05-14T12:08:42.499Z,6.90
2023-05-14T12:11:10.670Z,4.20
2023-05-14T12:13:39.845Z,7.10
2023-05-14T12:16:08.060Z,4.90
2023-05-14T12:18:37.279Z,3.70
2023-05-14T12:21:08.463Z,5.70
2023-05-14T12:23:39.174Z,4.70
2023-05-14T12:26:09.237Z,8.00
2023-05-14T12:28:43.615Z,5.50
2023-05-14T12:31:12.118Z,3.90
2023-05-14T12:33:40.549Z,6.20
2023-05-14T12:38:42.009Z,4.30
2023-05-14T12:41:10.131Z,4.10
2023-05-14T12:43:38.371Z,3.60
2023-05-14T12:46:06.743Z,5.30
2023-05-14T12:48:34.978Z,6.30
2023-05-14T12:51:03.299Z,3.70
2023-05-14T12:53:31.525Z,5.00
2023-05-14T12:55:59.642Z,4.40
2023-05-14T12:58:27.764Z,6.70
2023-05-14T13:00:56.667Z,4.60
2023-05-14T13:03:25.355Z,3.80
2023-05-14T13:05:54.469Z,4.30
2023-05-14T13:08:25.146Z,4.20
2023-05-14T13:10:54.231Z,5.80
2023-05-14T13:13:23.082Z,12.60
2023-05-14T13:15:51.242Z,5.40
2023-05-14T13:18:19.535Z,4.00
2023-05-14T13:20:48.038Z,7.60
2023-05-14T13:23:16.219Z,3.60
2023-05-14T13:25:44.334Z,3.40
2023-05-14T13:28:12.629Z,4.50
2023-05-14T13:30:41.038Z,4.00
2023-05-14T13:33:09.260Z,8.30
2023-05-14T13:35:37.665Z,3.90
2023-05-14T13:38:05.909Z,7.40
2023-05-14T13:40:34.011Z,4.00
2023-05-14T13:43:03.178Z,7.60
2023-05-14T13:45:31.275Z,4.00
2023-05-14T13:47:59.465Z,6.60
2023-05-14T13:50:27.607Z,3.90
2023-05-14T13:52:55.691Z,5.00
2023-05-14T13:55:23.950Z,5.30
2023-05-14T13:57:52.163Z,5.10
2023-05-14T14:00:20.532Z,4.60
2023-05-14T14:02:48.636Z,2.80
2023-05-14T14:05:16.888Z,6.00
2023-05-14T14:07:45.784Z,4.90
2023-05-14T14:10:14.777Z,3.40
2023-05-14T14:12:42.891Z,5.40
2023-05-14T14:15:11.551Z,6.60
2023-05-14T14:17:41.836Z,5.30
2023-05-14T14:20:10.780Z,4.80
2023-05-14T14:22:39.145Z,6.60
2023-05-14T14:25:08.647Z,5.10
2023-05-14T14:27:38.675Z,8.10
2023-05-14T14:30:17.097Z,5.40
2023-05-14T14:32:46.989Z,4.30
2023-05-14T14:35:17.030Z,5.70
2023-05-14T14:37:49.244Z,5.60
2023-05-14T14:40:17.918Z,7.30
2023-05-14T14:42:46.071Z,4.60
2023-05-14T14:45:14.255Z,9.90
2023-05-14T14:47:47.244Z,6.00
2023-05-14T14:50:15.672Z,7.60
2023-05-14T14:52:46.005Z,9.00
2023-05-14T14:55:14.313Z,7.50
2023-05-14T14:57:42.504Z,10.50
2023-05-14T15:00:11.467Z,4.90
2023-05-14T15:02:42.308Z,7.20
2023-05-14T15:05:10.662Z,3.90
2023-05-14T15:07:38.860Z,5.70
2023-05-14T15:10:07.642Z,6.10
2023-05-14T15:12:35.956Z,4.90
2023-05-14T15:15:04.380Z,5.20
2023-05-14T15:17:32.546Z,7.70
2023-05-14T15:20:00.712Z,9.60
2023-05-14T15:22:28.888Z,6.60
2023-05-14T15:24:57.030Z,9.40
2023-05-14T15:27:25.319Z,7.10
2023-05-14T15:29:53.825Z,11.50
2023-05-14T15:32:22.285Z,5.00
2023-05-14T15:34:50.547Z,6.90
2023-05-14T15:37:18.838Z,4.40
2023-05-14T15:39:47.024Z,5.30
2023-05-14T15:42:15.241Z,4.60
2023-05-14T15:44:43.394Z,6.70
2023-05-14T15:47:11.485Z,5.40
2023-05-14T15:49:39.632Z,5.40
2023-05-14T15:52:07.995Z,6.60
2023-05-14T15:54:36.189Z,5.90
2023-05-14T15:57:04.616Z,3.70
2023-05-14T15:59:32.819Z,4.90
2023-05-14T16:02:00.963Z,3.10
2023-05-14T16:04:29.237Z,4.40
2023-05-14T16:07:08.042Z,4.70
2023-05-14T16:09:38.866Z,3.80
2023-05-14T16:12:08.099Z,4.20
2023-05-14T16:14:36.542Z,7.60
2023-05-14T16:17:04.898Z,5.60
2023-05-14T16:19:32.987Z,4.90
2023-05-14T16:22:01.429Z,3.40
2023-05-14T16:24:29.717Z,6.30
2023-05-14T16:26:58.483Z,7.10
2023-05-14T16:29:26.545Z,6.80
2023-05-14T16:31:54.979Z,7.70
2023-05-14T16:34:23.114Z,14.20
2023-05-14T16:36:51.269Z,10.60
2023-05-14T16:39:20.108Z,7.50
2023-05-14T16:41:48.220Z,7.20
2023-05-14T16:44:16.610Z,8.80
2023-05-14T16:46:45.012Z,7.50
2023-05-14T16:49:14.203Z,13.30
2023-05-14T16:51:44.018Z,10.50
2023-05-14T16:54:12.165Z,10.80
2023-05-14T16:56:40.623Z,6.90
2023-05-14T16:59:08.978Z,10.00
2023-05-14T17:01:37.691Z,9.50
2023-05-14T17:04:06.003Z,8.50
2023-05-14T17:06:34.797Z,7.10
2023-05-14T17:09:03.788Z,7.10
2023-05-14T17:11:31.855Z,14.40
2023-05-14T17:13:58.872Z,4.90
2023-05-14T17:16:26.271Z,6.40
2023-05-14T17:18:56.571Z,6.10
2023-05-14T17:21:24.936Z,7.00
2023-05-14T17:23:53.191Z,6.40
2023-05-14T17:26:21.984Z,6.40
2023-05-14T17:28:50.120Z,8.30
2023-05-14T17:31:18.444Z,5.40
2023-05-14T17:33:46.817Z,5.40
2023-05-14T17:36:15.402Z,5.90
2023-05-14T17:38:43.970Z,4.80
2023-05-14T17:41:12.451Z,6.60
2023-05-14T17:43:40.605Z,8.00
2023-05-14T17:46:08.923Z,5.40
2023-05-14T17:48:37.018Z,4.90
2023-05-14T17:51:05.195Z,6.70
2023-05-14T17:53:33.365Z,7.70
2023-05-14T17:56:01.635Z,4.40
2023-05-14T17:58:30.066Z,5.90
2023-05-14T18:00:58.275Z,6.40
2023-05-14T18:03:26.833Z,16.40
2023-05-14T18:05:55.304Z,7.10
2023-05-14T18:08:23.533Z,5.20
2023-05-14T18:10:51.774Z,10.60
2023-05-14T18:13:20.268Z,12.20
2023-05-14T18:15:48.499Z,5.60
2023-05-14T18:18:18.887Z,10.20
2023-05-14T18:20:47.198Z,7.20
2023-05-14T18:23:15.517Z,7.10
2023-05-14T18:25:43.900Z,8.30
2023-05-14T18:28:13.269Z,18.00
2023-05-14T18:30:44.165Z,7.90
2023-05-14T18:33:13.526Z,6.10
2023-05-14T18:35:44.100Z,6.30
2023-05-14T18:38:13.970Z,7.60
2023-05-14T18:40:42.085Z,11.40
2023-05-14T18:43:11.748Z,9.40
2023-05-14T18:45:40.534Z,9.70
2023-05-14T18:48:10.072Z,14.70
2023-05-14T18:50:39.369Z,7.20
2023-05-14T18:53:08.518Z,9.70
2023-05-14T18:55:37.183Z,8.80
2023-05-14T18:58:05.450Z,10.30
2023-05-14T19:00:33.586Z,10.40
2023-05-14T19:03:01.776Z,11.00
2023-05-14T19:05:30.329Z,11.30
2023-05-14T19:07:58.541Z,6.40
2023-05-14T19:10:26.869Z,7.70
2023-05-14T19:12:55.053Z,6.20
2023-05-14T19:15:23.803Z,11.00
2023-05-14T19:17:54.143Z,7.80
2023-05-14T19:20:22.440Z,8.30
2023-05-14T19:22:50.787Z,7.00
2023-05-14T19:25:18.899Z,9.30
2023-05-14T19:27:51.024Z,7.90
2023-05-14T19:30:20.303Z,6.90
2023-05-14T19:32:48.489Z,6.20
2023-05-14T19:35:16.641Z,7.40
2023-05-14T19:37:44.782Z,9.60
2023-05-14T19:40:13.177Z,5.60
2023-05-14T19:42:41.559Z,6.10
2023-05-14T19:45:10.382Z,7.40
2023-05-14T19:47:38.830Z,7.70
2023-05-14T19:50:08.615Z,8.90
2023-05-14T19:52:36.702Z,8.60
2023-05-14T19:55:05.397Z,7.80
2023-05-14T19:57:33.513Z,4.00
2023-05-14T20:00:01.704Z,6.60
2023-05-14T20:02:30.311Z,7.60
2023-05-14T20:04:58.715Z,7.90
2023-05-14T20:07:26.977Z,10.60
2023-05-14T20:09:55.141Z,6.90
2023-05-14T20:12:23.454Z,8.20
2023-05-14T20:14:51.804Z,7.40
2023-05-14T20:17:21.130Z,5.60
2023-05-14T20:19:49.224Z,7.80
2023-05-14T20:22:17.315Z,8.70
2023-05-14T20:24:45.614Z,7.90
2023-05-14T20:27:13.908Z,5.20
2023-05-14T20:29:42.105Z,4.20
2023-05-14T20:32:10.455Z,6.10
2023-05-14T20:34:38.592Z,8.40
2023-05-14T20:37:08.137Z,9.00
2023-05-14T20:39:36.383Z,5.70
2023-05-14T20:42:04.841Z,6.10
2023-05-14T20:44:32.993Z,5.60
2023-05-14T20:47:01.400Z,38.60
2023-05-14T20:49:29.627Z,48.70
2023-05-14T20:51:57.680Z,14.90
2023-05-14T20:54:25.740Z,15.70
2023-05-14T20:56:53.939Z,9.20
2023-05-14T20:59:22.055Z,7.70
2023-05-14T21:01:51.085Z,6.30
2023-05-14T21:04:19.564Z,7.20
2023-05-14T21:06:47.761Z,7.00
2023-05-14T21:09:16.190Z,8.90
2023-05-14T21:11:44.588Z,7.70
2023-05-14T21:14:12.859Z,9.90
2023-05-14T21:16:41.072Z,5.80
2023-05-14T21:19:09.420Z,7.50
2023-05-14T21:21:37.965Z,6.70
2023-05-14T21:24:06.442Z,7.30
2023-05-14T21:26:35.863Z,6.10
2023-05-14T21:29:04.315Z,4.70
2023-05-14T21:31:32.468Z,6.50
2023-05-14T21:34:00.797Z,5.10
2023-05-14T21:36:29.195Z,9.80
2023-05-14T21:38:57.372Z,5.10
2023-05-14T21:41:25.713Z,7.20
2023-05-14T21:43:53.813Z,5.20
2023-05-14T21:46:21.984Z,6.10
2023-05-14T21:48:50.234Z,4.70
2023-05-14T21:51:18.346Z,5.20
2023-05-14T21:53:48.592Z,6.40
2023-05-14T21:56:16.760Z,5.70
2023-05-14T21:58:45.132Z,6.90
2023-05-14T22:01:13.264Z,3.90
2023-05-14T22:03:41.570Z,6.10
2023-05-14T22:06:09.710Z,15.50
2023-05-14T22:08:37.837Z,54.50
2023-05-14T22:11:05.975Z,45.10
2023-05-14T22:13:35.518Z,27.00
2023-05-14T22:16:12.029Z,15.60
2023-05-14T22:18:41.697Z,9.00
2023-05-14T22:21:09.951Z,6.40
2023-05-14T22:23:38.046Z,8.80
2023-05-14T22:26:06.208Z,7.20
2023-05-14T22:28:34.370Z,6.10
2023-05-14T22:31:02.571Z,6.20
2023-05-14T22:33:33.248Z,6.70
2023-05-14T22:36:01.535Z,10.00
2023-05-14T22:38:29.624Z,4.50
2023-05-14T22:40:57.751Z,3.90
2023-05-14T22:43:25.959Z,5.70
2023-05-14T22:45:54.209Z,4.90
2023-05-14T22:48:22.622Z,5.20
2023-05-14T22:50:51.920Z,6.50
2023-05-14T22:53:20.033Z,8.20
2023-05-14T22:55:48.215Z,5.80
2023-05-14T22:58:16.430Z,5.90
2023-05-14T23:00:44.513Z,4.30
2023-05-14T23:03:12.610Z,8.20
2023-05-14T23:05:40.818Z,6.40
2023-05-14T23:08:09.108Z,7.30
2023-05-14T23:10:37.400Z,9.50
2023-05-14T23:13:05.649Z,8.70
2023-05-14T23:15:33.754Z,6.60
2023-05-14T23:18:01.998Z,32.10
2023-05-14T23:20:30.191Z,41.90
2023-05-14T23:22:58.313Z,12.60
2023-05-14T23:25:26.481Z,12.60
2023-05-14T23:27:54.682Z,8.60
2023-05-14T23:30:22.794Z,11.70
2023-05-14T23:32:50.986Z,10.90
2023-05-14T23:35:19.348Z,9.30
2023-05-14T23:37:49.645Z,7.50
2023-05-14T23:40:18.396Z,7.60
2023-05-14T23:42:46.879Z,7.60
2023-05-14T23:45:15.146Z,7.10
2023-05-14T23:47:43.378Z,7.40
2023-05-14T23:50:11.629Z,7.50
2023-05-14T23:52:39.717Z,6.70
2023-05-14T23:55:08.101Z,7.10
2023-05-14T23:57:36.341Z,5.50
